createdAt,value
2017-11-20T00:02:05.726Z,8.27
2017-11-20T00:04:33.908Z,7.33
2017-11-20T00:07:01.976Z,6.30
2017-11-20T00:09:30.202Z,6.60
2017-11-20T00:11:58.413Z,6.93
2017-11-20T00:14:26.506Z,6.33
2017-11-20T00:16:54.564Z,6.80
2017-11-20T00:19:22.828Z,8.33
2017-11-20T00:21:52.745Z,7.20
2017-11-20T00:24:20.997Z,7.60
2017-11-20T00:26:49.094Z,7.13
2017-11-20T00:29:17.180Z,7.13
2017-11-20T00:31:45.263Z,7.00
2017-11-20T00:34:13.370Z,7.00
2017-11-20T00:36:42.277Z,8.53
2017-11-20T00:39:10.460Z,7.27
2017-11-20T00:41:38.544Z,7.47
2017-11-20T00:44:06.729Z,7.30
2017-11-20T00:46:34.821Z,9.23
2017-11-20T00:49:03.438Z,7.57
2017-11-20T00:51:33.296Z,7.20
2017-11-20T00:54:02.387Z,7.17
2017-11-20T00:56:30.648Z,8.30
2017-11-20T00:58:58.761Z,7.30
2017-11-20T01:01:26.913Z,7.07
2017-11-20T01:03:54.995Z,8.37
2017-11-20T01:06:24.845Z,8.10
2017-11-20T01:08:52.916Z,7.53
2017-11-20T01:11:22.589Z,9.10
2017-11-20T01:13:50.829Z,7.80
2017-11-20T01:16:18.929Z,8.27
2017-11-20T01:18:47.027Z,8.27
2017-11-20T01:21:15.199Z,8.67
2017-11-20T01:23:43.274Z,8.90
2017-11-20T01:26:11.548Z,12.00
2017-11-20T01:28:39.621Z,8.17
2017-11-20T01:31:07.709Z,9.10
2017-11-20T01:33:36.557Z,8.97
2017-11-20T01:36:04.723Z,8.27
2017-11-20T01:38:32.817Z,8.07
2017-11-20T01:41:00.895Z,7.70
2017-11-20T01:43:28.998Z,7.93
2017-11-20T01:45:57.973Z,8.43
2017-11-20T01:48:26.042Z,7.70
2017-11-20T01:50:54.141Z,7.30
2017-11-20T01:53:23.136Z,8.17
2017-11-20T01:55:51.212Z,8.50
2017-11-20T01:58:19.715Z,8.03
2017-11-20T02:00:47.905Z,8.13
2017-11-20T02:03:15.989Z,8.20
2017-11-20T02:05:44.151Z,7.93
2017-11-20T02:08:12.272Z,7.20
2017-11-20T02:10:41.116Z,8.20
2017-11-20T02:13:09.200Z,6.97
2017-11-20T02:15:37.934Z,7.60
2017-11-20T02:18:06.061Z,7.30
2017-11-20T02:20:34.172Z,6.60
2017-11-20T02:23:03.093Z,7.80
2017-11-20T02:25:31.170Z,8.17
2017-11-20T02:27:59.277Z,7.93
2017-11-20T02:30:27.364Z,7.30
2017-11-20T02:32:56.224Z,7.50
2017-11-20T02:35:24.307Z,7.47
2017-11-20T02:37:52.381Z,6.43
2017-11-20T02:40:20.507Z,6.60
2017-11-20T02:42:48.598Z,6.73
2017-11-20T02:45:16.706Z,7.73
2017-11-20T02:47:44.791Z,6.20
2017-11-20T02:50:13.625Z,6.30
2017-11-20T02:52:42.214Z,6.90
2017-11-20T02:55:10.284Z,6.60
2017-11-20T02:57:38.378Z,6.20
2017-11-20T03:00:06.465Z,5.80
2017-11-20T03:02:34.556Z,5.43
2017-11-20T03:05:03.401Z,5.93
2017-11-20T03:07:31.529Z,6.60
2017-11-20T03:10:00.357Z,5.97
2017-11-20T03:12:28.448Z,5.90
2017-11-20T03:14:56.571Z,6.53
2017-11-20T03:17:24.636Z,5.90
2017-11-20T03:19:52.735Z,6.00
2017-11-20T03:22:20.805Z,5.90
2017-11-20T03:24:48.908Z,6.60
2017-11-20T03:27:16.983Z,6.40
2017-11-20T03:29:45.296Z,4.80
2017-11-20T03:32:13.413Z,6.13
2017-11-20T03:34:41.505Z,5.90
2017-11-20T03:37:09.590Z,6.07
2017-11-20T03:39:37.673Z,5.73
2017-11-20T03:42:05.833Z,5.30
2017-11-20T03:44:33.936Z,6.17
2017-11-20T03:47:02.864Z,5.50
2017-11-20T03:49:31.110Z,6.00
2017-11-20T03:51:59.253Z,5.63
2017-11-20T03:54:27.466Z,6.50
2017-11-20T03:56:56.513Z,6.13
2017-11-20T03:59:24.645Z,6.57
2017-11-20T04:01:52.720Z,6.23
2017-11-20T04:04:20.860Z,5.73
2017-11-20T04:06:49.598Z,5.80
2017-11-20T04:09:17.741Z,5.77
2017-11-20T04:11:45.817Z,5.97
2017-11-20T04:14:14.808Z,7.03
2017-11-20T04:16:43.030Z,6.33
2017-11-20T04:19:11.108Z,6.43
2017-11-20T04:21:39.184Z,6.73
2017-11-20T04:24:08.181Z,7.20
2017-11-20T04:26:36.271Z,6.80
2017-11-20T04:29:05.145Z,8.00
2017-11-20T04:31:34.045Z,7.23
2017-11-20T04:34:02.169Z,7.13
2017-11-20T04:36:31.104Z,6.73
2017-11-20T04:38:59.325Z,7.30
2017-11-20T04:41:27.400Z,8.77
2017-11-20T04:43:55.469Z,8.43
2017-11-20T04:46:23.582Z,7.80
2017-11-20T04:48:51.650Z,8.17
2017-11-20T04:51:20.541Z,7.90
2017-11-20T04:53:49.700Z,7.90
2017-11-20T04:56:17.799Z,9.10
2017-11-20T04:58:45.873Z,9.03
2017-11-20T05:01:14.192Z,8.83
2017-11-20T05:03:42.773Z,9.50
2017-11-20T05:06:11.701Z,9.87
2017-11-20T05:08:39.875Z,9.07
2017-11-20T05:11:07.972Z,9.30
2017-11-20T05:13:36.124Z,9.37
2017-11-20T05:16:04.925Z,9.43
2017-11-20T05:18:33.747Z,10.40
2017-11-20T05:21:02.007Z,10.53
2017-11-20T05:23:30.092Z,10.63
2017-11-20T05:25:58.364Z,10.40
2017-11-20T05:28:27.095Z,10.13
2017-11-20T05:30:55.238Z,10.57
2017-11-20T05:33:24.121Z,10.87
2017-11-20T05:35:53.301Z,10.80
2017-11-20T05:38:21.599Z,10.90
2017-11-20T05:40:50.242Z,10.80
2017-11-20T05:43:18.349Z,10.77
2017-11-20T05:45:46.462Z,10.50
2017-11-20T05:48:14.560Z,11.60
2017-11-20T05:50:42.653Z,11.73
2017-11-20T05:53:10.746Z,10.97
2017-11-20T05:55:38.845Z,11.50
2017-11-20T05:58:06.949Z,12.33
2017-11-20T06:00:35.042Z,11.50
2017-11-20T06:03:03.193Z,12.07
2017-11-20T06:05:31.300Z,12.27
2017-11-20T06:07:59.478Z,10.20
2017-11-20T06:10:27.570Z,11.97
2017-11-20T06:12:56.434Z,12.37
2017-11-20T06:15:24.535Z,12.50
2017-11-20T06:17:53.525Z,11.50
2017-11-20T06:20:22.385Z,11.87
2017-11-20T06:22:50.502Z,11.10
2017-11-20T06:25:18.594Z,11.80
2017-11-20T06:27:46.665Z,12.50
2017-11-20T06:30:14.848Z,13.00
2017-11-20T06:32:42.953Z,12.40
2017-11-20T06:35:11.081Z,11.50
2017-11-20T06:37:39.297Z,11.47
2017-11-20T06:40:07.406Z,11.03
2017-11-20T06:42:35.562Z,11.30
2017-11-20T06:45:03.733Z,12.10
2017-11-20T06:47:31.813Z,12.17
2017-11-20T06:49:59.997Z,11.50
2017-11-20T06:52:28.079Z,12.70
2017-11-20T06:54:56.181Z,11.33
2017-11-20T06:57:24.271Z,11.33
2017-11-20T06:59:52.368Z,12.07
2017-11-20T07:02:20.537Z,10.07
2017-11-20T07:04:48.617Z,11.30
2017-11-20T07:07:16.721Z,11.37
2017-11-20T07:09:44.804Z,12.03
2017-11-20T07:12:12.917Z,10.70
2017-11-20T07:14:41.010Z,11.33
2017-11-20T07:17:09.133Z,11.00
2017-11-20T07:19:37.233Z,10.27
2017-11-20T07:22:05.371Z,11.20
2017-11-20T07:24:33.462Z,14.93
2017-11-20T07:27:02.503Z,11.67
2017-11-20T07:32:39.588Z,10.37
2017-11-20T07:35:16.534Z,9.40
2017-11-20T07:37:56.483Z,9.33
2017-11-20T07:40:24.614Z,8.90
2017-11-20T07:42:52.695Z,10.37
2017-11-20T07:45:21.557Z,9.60
2017-11-20T07:47:49.647Z,9.77
2017-11-20T07:50:18.517Z,9.87
2017-11-20T07:52:46.628Z,10.43
2017-11-20T07:55:14.736Z,9.23
2017-11-20T07:57:42.903Z,9.73
2017-11-20T08:00:10.979Z,8.70
2017-11-20T08:02:39.084Z,7.43
2017-11-20T08:05:07.172Z,7.63
2017-11-20T08:07:35.285Z,6.87
2017-11-20T08:10:03.369Z,7.40
2017-11-20T08:12:31.560Z,6.80
2017-11-20T08:14:59.704Z,6.30
2017-11-20T08:17:27.855Z,6.47
2017-11-20T08:19:55.957Z,5.40
2017-11-20T08:22:24.033Z,6.50
2017-11-20T08:24:52.132Z,6.13
2017-11-20T08:27:20.200Z,4.60
2017-11-20T08:29:48.301Z,4.20
2017-11-20T08:32:17.145Z,3.50
2017-11-20T08:34:45.221Z,4.03
2017-11-20T08:37:13.324Z,4.30
2017-11-20T08:39:42.226Z,3.80
2017-11-20T08:42:11.092Z,4.80
2017-11-20T08:44:39.225Z,4.30
2017-11-20T08:47:08.109Z,4.10
2017-11-20T08:49:36.184Z,4.60
2017-11-20T08:52:04.296Z,4.53
2017-11-20T08:54:32.376Z,4.27
2017-11-20T08:57:00.444Z,4.40
2017-11-20T08:59:28.545Z,4.77
2017-11-20T09:01:57.389Z,4.83
2017-11-20T09:04:25.487Z,5.13
2017-11-20T09:06:53.592Z,5.43
2017-11-20T09:09:21.684Z,4.70
2017-11-20T09:11:49.764Z,5.70
2017-11-20T09:14:17.889Z,5.20
2017-11-20T09:16:46.766Z,4.93
2017-11-20T09:19:14.893Z,4.87
2017-11-20T09:21:42.997Z,5.67
2017-11-20T09:24:11.077Z,6.20
2017-11-20T09:29:38.634Z,4.73
2017-11-20T09:32:06.755Z,5.50
2017-11-20T09:34:42.377Z,6.17
2017-11-20T09:37:10.489Z,6.37
2017-11-20T09:39:38.569Z,6.60
2017-11-20T09:42:06.674Z,7.17
2017-11-20T09:44:34.773Z,6.83
2017-11-20T09:47:03.020Z,7.60
2017-11-20T09:49:31.110Z,6.63
2017-11-20T09:51:59.201Z,6.47
2017-11-20T09:54:27.372Z,6.67
2017-11-20T09:56:55.479Z,5.83
2017-11-20T09:59:23.578Z,6.83
2017-11-20T10:05:04.461Z,6.37
2017-11-20T10:07:32.598Z,6.20
2017-11-20T10:10:01.440Z,5.90
2017-11-20T10:12:29.540Z,6.70
2017-11-20T10:14:57.620Z,5.67
2017-11-20T10:17:26.511Z,5.03
2017-11-20T10:19:55.350Z,4.40
2017-11-20T10:22:23.426Z,4.10
2017-11-20T10:24:51.545Z,4.10
2017-11-20T10:27:20.402Z,3.63
2017-11-20T10:29:48.496Z,3.53
2017-11-20T10:32:16.578Z,3.23
2017-11-20T10:34:44.713Z,3.50
2017-11-20T10:37:12.786Z,3.70
2017-11-20T10:39:40.880Z,3.43
2017-11-20T10:42:08.952Z,3.23
2017-11-20T10:44:37.037Z,3.37
2017-11-20T10:47:05.909Z,4.43
2017-11-20T10:49:34.021Z,4.10
2017-11-20T10:52:03.060Z,3.97
2017-11-20T10:54:31.136Z,4.47
2017-11-20T10:56:59.268Z,4.40
2017-11-20T10:59:27.357Z,4.37
2017-11-20T11:01:55.432Z,3.97
2017-11-20T11:04:23.598Z,4.80
2017-11-20T11:06:51.693Z,3.63
2017-11-20T11:09:19.788Z,3.27
2017-11-20T11:11:47.885Z,4.10
2017-11-20T11:14:16.717Z,3.60
2017-11-20T11:16:44.830Z,3.13
2017-11-20T11:19:12.936Z,3.40
2017-11-20T11:21:41.013Z,3.43
2017-11-20T11:24:09.230Z,3.67
2017-11-20T11:26:37.319Z,3.40
2017-11-20T11:29:05.420Z,4.80
2017-11-20T11:31:33.519Z,4.63
2017-11-20T11:34:01.737Z,4.10
2017-11-20T11:36:29.856Z,4.17
2017-11-20T11:38:57.964Z,4.20
2017-11-20T11:41:26.102Z,4.57
2017-11-20T11:43:54.170Z,4.40
2017-11-20T11:46:22.293Z,4.40
2017-11-20T11:48:50.364Z,5.70
2017-11-20T11:51:18.431Z,5.17
2017-11-20T11:53:46.593Z,5.20
2017-11-20T11:56:14.755Z,5.50
2017-11-20T11:58:42.852Z,4.90
2017-11-20T12:01:10.956Z,6.90
2017-11-20T12:03:39.818Z,6.63
2017-11-20T12:06:07.905Z,6.77
2017-11-20T12:08:35.997Z,6.37
2017-11-20T12:11:04.084Z,6.40
2017-11-20T12:13:32.171Z,7.20
2017-11-20T12:16:00.265Z,6.97
2017-11-20T12:18:28.344Z,6.53
2017-11-20T12:20:56.462Z,7.00
2017-11-20T12:23:25.313Z,6.50
2017-11-20T12:25:53.406Z,7.00
2017-11-20T12:28:22.272Z,6.27
2017-11-20T12:30:50.357Z,6.80
2017-11-20T12:33:18.451Z,7.00
2017-11-20T12:35:46.521Z,7.33
2017-11-20T12:38:15.381Z,7.90
2017-11-20T12:40:43.520Z,8.47
2017-11-20T12:43:11.598Z,7.67
2017-11-20T12:45:39.697Z,7.80
2017-11-20T12:48:07.788Z,6.80
2017-11-20T12:50:35.910Z,7.40
2017-11-20T12:53:04.001Z,8.27
2017-11-20T12:55:32.097Z,8.53
2017-11-20T12:58:00.176Z,9.20
2017-11-20T13:00:28.310Z,9.10
2017-11-20T13:02:56.546Z,9.70
2017-11-20T13:05:25.381Z,8.60
2017-11-20T13:07:53.478Z,9.40
2017-11-20T13:10:21.560Z,9.90
2017-11-20T13:12:49.661Z,10.30
2017-11-20T13:15:17.809Z,9.40
2017-11-20T13:17:45.949Z,10.20
2017-11-20T13:20:14.030Z,9.90
2017-11-20T13:22:42.136Z,10.53
2017-11-20T13:25:11.140Z,11.80
2017-11-20T13:27:39.321Z,10.03
2017-11-20T13:30:07.433Z,11.73
2017-11-20T13:32:35.532Z,11.30
2017-11-20T13:35:03.660Z,12.10
2017-11-20T13:37:31.749Z,12.43
2017-11-20T13:39:59.914Z,13.37
2017-11-20T13:42:28.296Z,12.00
2017-11-20T13:44:56.396Z,13.53
2017-11-20T13:47:24.485Z,13.67
2017-11-20T13:49:53.393Z,13.30
2017-11-20T13:52:21.484Z,13.40
2017-11-20T13:54:49.573Z,12.63
2017-11-20T13:57:17.661Z,13.47
2017-11-20T13:59:45.805Z,13.70
2017-11-20T14:02:13.926Z,14.50
2017-11-20T14:04:42.012Z,13.17
2017-11-20T14:07:10.133Z,12.93
2017-11-20T14:09:38.217Z,14.13
2017-11-20T14:12:06.340Z,13.57
2017-11-20T14:14:34.493Z,13.60
2017-11-20T14:17:02.574Z,14.20
2017-11-20T14:19:30.700Z,13.30
2017-11-20T14:21:58.841Z,12.77
2017-11-20T14:24:27.774Z,13.87
2017-11-20T14:26:55.861Z,13.30
2017-11-20T14:29:23.961Z,13.53
2017-11-20T14:31:52.041Z,14.30
2017-11-20T14:34:20.152Z,13.30
2017-11-20T14:36:48.277Z,13.47
2017-11-20T14:39:16.361Z,15.40
2017-11-20T14:41:45.236Z,14.10
2017-11-20T14:44:14.080Z,12.93
2017-11-20T14:46:43.292Z,14.80
2017-11-20T14:49:11.388Z,13.90
2017-11-20T14:51:46.826Z,14.53
2017-11-20T14:54:31.409Z,12.73
2017-11-20T14:57:00.283Z,14.33
2017-11-20T14:59:28.383Z,14.90
2017-11-20T15:01:57.999Z,13.87
2017-11-20T15:04:26.108Z,12.73
2017-11-20T15:06:54.244Z,13.67
2017-11-20T15:09:22.374Z,13.03
2017-11-20T15:11:51.396Z,12.70
2017-11-20T15:14:19.541Z,14.30
2017-11-20T15:16:47.645Z,12.53
2017-11-20T15:19:16.568Z,14.30
2017-11-20T15:21:44.737Z,14.10
2017-11-20T15:24:12.872Z,13.27
2017-11-20T15:26:41.854Z,14.20
2017-11-20T15:29:09.993Z,13.43
2017-11-20T15:31:38.148Z,14.00
2017-11-20T15:34:06.278Z,12.20
2017-11-20T15:36:34.412Z,12.43
2017-11-20T15:39:02.525Z,13.43
2017-11-20T15:41:30.748Z,12.83
2017-11-20T15:43:58.820Z,13.77
2017-11-20T15:46:26.937Z,13.33
2017-11-20T15:48:55.017Z,13.80
2017-11-20T15:51:23.196Z,13.97
2017-11-20T15:53:51.291Z,13.90
2017-11-20T15:56:19.371Z,14.40
2017-11-20T15:58:47.460Z,15.70
2017-11-20T16:01:15.781Z,14.47
2017-11-20T16:03:43.854Z,13.47
2017-11-20T16:06:11.974Z,14.80
2017-11-20T16:08:40.138Z,13.00
2017-11-20T16:11:08.422Z,16.13
2017-11-20T16:13:36.568Z,15.17
2017-11-20T16:16:05.451Z,14.67
2017-11-20T16:18:37.549Z,13.70
2017-11-20T16:21:05.625Z,15.17
2017-11-20T16:23:33.749Z,14.77
2017-11-20T16:26:01.821Z,14.20
2017-11-20T16:28:29.895Z,14.10
2017-11-20T16:30:58.044Z,14.07
2017-11-20T16:33:26.137Z,14.37
2017-11-20T16:35:54.211Z,15.73
2017-11-20T16:38:22.317Z,14.00
2017-11-20T16:40:50.425Z,14.10
2017-11-20T16:43:18.616Z,14.47
2017-11-20T16:45:46.722Z,14.07
2017-11-20T16:48:15.593Z,15.33
2017-11-20T16:50:43.716Z,14.10
2017-11-20T16:53:11.856Z,15.97
2017-11-20T16:55:40.037Z,14.77
2017-11-20T16:58:26.618Z,14.73
2017-11-20T17:00:54.814Z,16.17
2017-11-20T17:03:32.600Z,16.03
2017-11-20T17:06:01.681Z,15.70
2017-11-20T17:08:29.774Z,16.30
2017-11-20T17:10:58.627Z,14.93
2017-11-20T17:13:27.019Z,14.57
2017-11-20T17:15:55.227Z,16.47
2017-11-20T17:18:24.085Z,15.70
2017-11-20T17:20:52.728Z,15.40
2017-11-20T17:23:20.828Z,16.77
2017-11-20T17:25:49.009Z,16.90
2017-11-20T17:28:17.101Z,15.97
2017-11-20T17:30:45.186Z,17.10
2017-11-20T17:33:13.266Z,16.87
2017-11-20T17:35:42.126Z,17.00
2017-11-20T17:38:10.271Z,17.40
2017-11-20T17:40:38.378Z,18.27
2017-11-20T17:43:06.467Z,20.03
2017-11-20T17:45:34.571Z,20.67
2017-11-20T17:48:02.654Z,22.53
2017-11-20T17:50:30.842Z,23.90
2017-11-20T17:52:58.940Z,24.60
2017-11-20T17:55:27.052Z,24.80
2017-11-20T17:57:55.157Z,26.73
2017-11-20T18:00:23.245Z,25.47
2017-11-20T18:02:51.343Z,27.57
2017-11-20T18:05:19.498Z,30.80
2017-11-20T18:07:47.626Z,30.13
2017-11-20T18:10:15.726Z,31.00
2017-11-20T18:12:43.820Z,32.00
2017-11-20T18:15:11.897Z,32.50
2017-11-20T18:17:40.005Z,33.50
2017-11-20T18:20:08.127Z,35.57
2017-11-20T18:22:36.200Z,33.67
2017-11-20T18:25:04.314Z,31.20
2017-11-20T18:27:32.525Z,31.13
2017-11-20T18:30:00.597Z,34.03
2017-11-20T18:32:28.764Z,34.00
2017-11-20T18:34:56.864Z,31.57
2017-11-20T18:37:24.961Z,33.03
2017-11-20T18:39:53.049Z,34.70
2017-11-20T18:42:21.185Z,33.73
2017-11-20T18:44:49.339Z,33.93
2017-11-20T18:47:17.761Z,35.37
2017-11-20T18:49:45.858Z,32.97
2017-11-20T18:52:14.721Z,36.10
2017-11-20T18:54:42.877Z,34.67
2017-11-20T18:57:11.042Z,33.50
2017-11-20T18:59:39.169Z,33.87
2017-11-20T19:02:25.855Z,36.50
2017-11-20T19:05:01.141Z,34.93
2017-11-20T19:07:47.034Z,39.40
2017-11-20T19:10:15.173Z,41.20
2017-11-20T19:12:43.252Z,49.87
2017-11-20T19:15:11.336Z,48.63
2017-11-20T19:17:39.461Z,37.97
2017-11-20T19:20:07.548Z,39.63
2017-11-20T19:22:35.712Z,40.20
2017-11-20T19:25:03.828Z,45.33
2017-11-20T19:27:32.030Z,41.00
2017-11-20T19:30:00.106Z,35.57
2017-11-20T19:32:28.221Z,39.40
2017-11-20T19:34:56.589Z,36.30
2017-11-20T19:37:24.681Z,37.93
2017-11-20T19:39:53.661Z,36.47
2017-11-20T19:42:21.844Z,38.87
2017-11-20T19:44:50.792Z,45.93
2017-11-20T19:47:18.908Z,36.17
2017-11-20T19:49:47.820Z,36.00
2017-11-20T19:52:15.922Z,32.90
2017-11-20T19:54:44.021Z,31.60
2017-11-20T19:57:12.471Z,31.27
2017-11-20T19:59:40.636Z,29.37
2017-11-20T20:02:08.741Z,28.10
2017-11-20T20:04:36.949Z,27.67
2017-11-20T20:07:05.793Z,28.30
2017-11-20T20:09:33.965Z,27.67
2017-11-20T20:12:02.568Z,27.70
2017-11-20T20:14:31.044Z,27.23
2017-11-20T20:17:10.921Z,32.77
2017-11-20T20:19:39.826Z,28.30
2017-11-20T20:22:08.010Z,25.70
2017-11-20T20:24:36.110Z,24.83
2017-11-20T20:27:04.235Z,24.50
2017-11-20T20:29:33.276Z,23.30
2017-11-20T20:32:01.435Z,25.43
2017-11-20T20:34:29.564Z,21.87
2017-11-20T20:36:57.770Z,21.90
2017-11-20T20:39:25.933Z,21.80
2017-11-20T20:41:54.864Z,20.40
2017-11-20T20:44:23.016Z,19.27
2017-11-20T20:46:51.102Z,19.97
2017-11-20T20:49:19.216Z,22.43
2017-11-20T20:51:47.305Z,18.73
2017-11-20T20:54:16.213Z,18.67
2017-11-20T20:56:44.753Z,20.50
2017-11-20T20:59:12.965Z,20.67
2017-11-20T21:01:41.230Z,18.70
2017-11-20T21:04:09.330Z,18.33
2017-11-20T21:06:43.153Z,18.87
2017-11-20T21:09:11.226Z,21.00
2017-11-20T21:11:45.163Z,19.60
2017-11-20T21:14:13.710Z,21.20
2017-11-20T21:16:41.815Z,22.77
2017-11-20T21:19:09.905Z,21.60
2017-11-20T21:21:37.998Z,20.90
2017-11-20T21:24:06.386Z,23.30
2017-11-20T21:26:34.478Z,24.43
2017-11-20T21:29:02.613Z,22.73
2017-11-20T21:31:31.482Z,25.23
2017-11-20T21:33:59.582Z,26.07
2017-11-20T21:36:28.553Z,26.87
2017-11-20T21:38:56.750Z,26.80
2017-11-20T21:41:24.845Z,27.07
2017-11-20T21:43:53.145Z,28.60
2017-11-20T21:46:21.233Z,29.53
2017-11-20T21:48:49.333Z,29.73
2017-11-20T21:51:17.551Z,29.23
2017-11-20T21:53:45.653Z,29.57
2017-11-20T21:56:13.794Z,29.60
2017-11-20T21:58:41.883Z,29.83
2017-11-20T22:01:09.965Z,30.60
2017-11-20T22:03:38.197Z,35.53
2017-11-20T22:06:06.293Z,31.50
2017-11-20T22:08:34.377Z,31.10
2017-11-20T22:11:02.482Z,32.30
2017-11-20T22:13:30.569Z,34.07
2017-11-20T22:15:58.812Z,34.67
2017-11-20T22:18:26.906Z,35.43
2017-11-20T22:20:55.012Z,32.43
2017-11-20T22:23:23.336Z,35.70
2017-11-20T22:25:51.442Z,34.20
2017-11-20T22:28:21.281Z,35.17
2017-11-20T22:30:49.365Z,37.20
2017-11-20T22:33:17.485Z,37.80
2017-11-20T22:35:45.645Z,37.40
2017-11-20T22:38:13.740Z,38.17
2017-11-20T22:40:41.842Z,35.40
2017-11-20T22:43:09.948Z,36.60
2017-11-20T22:45:38.024Z,35.97
2017-11-20T22:48:06.217Z,36.67
2017-11-20T22:50:34.316Z,37.00
2017-11-20T22:53:02.420Z,33.77
2017-11-20T22:55:30.499Z,34.20
2017-11-20T22:57:58.665Z,36.67
2017-11-20T23:00:26.749Z,35.27
2017-11-20T23:02:55.689Z,35.60
2017-11-20T23:05:24.008Z,35.00
2017-11-20T23:07:52.099Z,34.47
2017-11-20T23:10:20.192Z,42.17
2017-11-20T23:12:48.269Z,34.73
2017-11-20T23:15:16.356Z,32.67
2017-11-20T23:17:44.477Z,34.93
2017-11-20T23:20:12.557Z,35.93
2017-11-20T23:22:40.642Z,34.93
2017-11-20T23:25:08.880Z,31.60
2017-11-20T23:27:37.000Z,32.83
2017-11-20T23:30:05.113Z,34.47
2017-11-20T23:32:33.234Z,33.53
2017-11-20T23:35:01.342Z,33.70
2017-11-20T23:37:29.437Z,32.57
2017-11-20T23:39:57.517Z,32.50
2017-11-20T23:42:25.621Z,33.60
2017-11-20T23:44:53.719Z,33.17
2017-11-20T23:47:21.796Z,33.93
2017-11-20T23:49:50.661Z,35.43
2017-11-20T23:52:18.742Z,30.97
2017-11-20T23:54:46.838Z,34.13
2017-11-20T23:57:15.698Z,32.70
2017-11-20T23:59:44.026Z,32.93
